Time;durP1;ratioP1;P1;durP2;ratioP2;P2;SDS_P1;SDS_P2;PMS_P1;PMS_P2;Temp;Humidity;BMP_temperature;BMP_pressure;BME280_temperature;BME280_humidity;BME280_pressure;Samples;Min_cycle;Max_cycle;Signal;HPM_P1;HPM_P2
2023/05/15 06:00:20;;;;;;;;;23.00;18.75;;;;;17.67;57.65;101363.66;5056121;27;46865;-78
2023/05/15 06:02:46;;;;;;;;;16.00;15.75;;;;;17.76;57.52;101353.09;5049230;28;45502;-78
2023/05/15 06:05:11;;;;;;;;;17.00;14.75;;;;;17.99;57.18;101363.91;5046467;28;45482;-85
2023/05/15 06:07:37;;;;;;;;;22.00;18.75;;;;;18.22;57.04;101366.72;5048704;28;45479;-81
2023/05/15 06:10:02;;;;;;;;;25.25;23.00;;;;;18.44;56.20;101368.59;5048935;28;45508;-81
2023/05/15 06:12:28;;;;;;;;;36.00;29.25;;;;;18.62;55.59;101372.66;5045908;28;45707;-87
2023/05/15 06:14:53;;;;;;;;;23.00;23.00;;;;;18.75;55.14;101375.22;5042321;28;45892;-82
2023/05/15 06:17:18;;;;;;;;;24.50;24.25;;;;;18.92;54.69;101382.84;5042212;28;56440;-82
2023/05/15 06:19:44;;;;;;;;;24.75;22.00;;;;;19.08;54.86;101384.31;5041563;28;62445;-83
2023/05/15 06:22:09;;;;;;;;;32.00;28.75;;;;;19.18;54.11;101381.75;5047765;28;48124;-83
2023/05/15 06:24:34;;;;;;;;;26.00;24.00;;;;;19.33;53.81;101393.13;5048329;28;45769;-83
2023/05/15 06:27:00;;;;;;;;;27.00;25.00;;;;;19.36;54.04;101382.09;5048720;28;53294;-82
2023/05/15 06:29:25;;;;;;;;;30.00;23.75;;;;;19.53;53.58;101387.94;5047761;28;46149;-82
2023/05/15 06:31:51;;;;;;;;;30.50;22.50;;;;;19.65;53.44;101397.69;5046906;28;45548;-84
2023/05/15 06:34:17;;;;;;;;;25.00;22.50;;;;;19.74;53.62;101399.63;5047230;28;45670;-80
2023/05/15 06:36:42;;;;;;;;;30.00;28.50;;;;;19.80;53.09;101397.41;5035796;28;46404;-79
2023/05/15 06:39:09;;;;;;;;;30.25;27.25;;;;;19.85;53.21;101392.47;5048287;28;45325;-78
2023/05/15 06:41:35;;;;;;;;;31.00;28.00;;;;;19.91;52.96;101388.44;5047440;28;45449;-78
2023/05/15 06:44:00;;;;;;;;;31.00;28.75;;;;;19.94;52.46;101378.25;5062012;28;45539;-74
2023/05/15 06:46:26;;;;;;;;;24.00;22.50;;;;;20.05;52.97;101393.53;5046388;28;45643;-78
2023/05/15 06:48:51;;;;;;;;;28.75;25.75;;;;;20.12;52.50;101397.41;5047753;28;46411;-79
2023/05/15 06:51:16;;;;;;;;;26.75;25.25;;;;;20.13;52.72;101385.69;5047090;28;56236;-88
2023/05/15 06:53:42;;;;;;;;;27.25;25.25;;;;;20.21;53.17;101398.50;5043855;28;45860;-78
2023/05/15 06:56:07;;;;;;;;;18.50;18.50;;;;;20.31;52.73;101398.56;5041351;28;45543;-80
2023/05/15 06:58:33;;;;;;;;;39.50;32.50;;;;;20.29;51.16;101395.16;5048938;27;45744;-75
2023/05/15 07:01:00;;;;;;;;;45.50;33.50;;;;;20.25;49.99;101396.38;5064646;28;45429;-75
2023/05/15 07:03:25;;;;;;;;;46.50;34.25;;;;;20.13;49.65;101393.75;5064583;27;45491;-79
2023/05/15 07:05:51;;;;;;;;;42.25;36.25;;;;;20.04;48.89;101397.22;5064146;28;45489;-78
2023/05/15 07:08:16;;;;;;;;;45.00;37.75;;;;;19.93;48.91;101394.53;5057564;27;46324;-81
2023/05/15 07:10:41;;;;;;;;;36.75;31.50;;;;;19.85;48.86;101397.88;5056088;28;45524;-79
2023/05/15 07:13:07;;;;;;;;;41.50;35.25;;;;;19.67;49.55;101376.88;5045051;28;45343;-77
2023/05/15 07:15:32;;;;;;;;;43.75;34.25;;;;;19.67;49.23;101384.09;5052039;28;45532;-77
2023/05/15 07:17:57;;;;;;;;;30.50;25.00;;;;;19.60;49.50;101384.63;5053247;28;47058;-80
2023/05/15 07:20:23;;;;;;;;;41.00;34.75;;;;;19.58;49.51;101391.13;5049796;28;45508;-78
2023/05/15 07:22:48;;;;;;;;;42.00;37.00;;;;;19.49;49.31;101392.72;5053122;28;45497;-79
2023/05/15 07:25:13;;;;;;;;;55.25;44.75;;;;;19.47;49.62;101398.25;5053869;28;45363;-82
2023/05/15 07:27:39;;;;;;;;;46.25;38.25;;;;;19.44;49.55;101389.53;5054161;28;45415;-83
2023/05/15 07:30:05;;;;;;;;;44.00;33.25;;;;;19.33;49.42;101374.28;5042988;28;45743;-85
2023/05/15 07:32:30;;;;;;;;;35.75;31.50;;;;;19.41;50.63;101387.94;5032129;28;45719;-81
2023/05/15 07:34:56;;;;;;;;;39.50;34.00;;;;;19.48;50.11;101388.31;5050201;28;45524;-76
2023/05/15 07:37:22;;;;;;;;;34.50;33.00;;;;;19.51;50.22;101373.75;5041280;28;61905;-84
2023/05/15 07:39:47;;;;;;;;;39.00;31.00;;;;;19.61;50.50;101380.94;5050903;28;45745;-78
2023/05/15 07:42:13;;;;;;;;;38.75;32.75;;;;;19.62;50.62;101373.72;5054254;28;45408;-89
2023/05/15 07:44:38;;;;;;;;;40.25;33.00;;;;;19.75;50.68;101378.94;5036610;28;45363;-78
2023/05/15 07:47:03;;;;;;;;;36.00;32.00;;;;;19.80;50.36;101386.63;5044457;28;61831;-77
2023/05/15 07:49:29;;;;;;;;;40.25;32.75;;;;;19.84;50.64;101388.09;5050007;28;45372;-78
2023/05/15 07:51:54;;;;;;;;;33.50;31.00;;;;;19.89;50.39;101380.47;5054426;28;45479;-77
2023/05/15 07:54:20;;;;;;;;;36.25;31.25;;;;;19.96;50.67;101381.69;5053717;28;45323;-77
2023/05/15 07:56:45;;;;;;;;;41.00;29.25;;;;;20.03;50.08;101386.56;5054469;28;47334;-77
2023/05/15 07:59:10;;;;;;;;;34.25;31.75;;;;;20.06;50.21;101387.16;5051861;28;45405;-78
2023/05/15 08:01:35;;;;;;;;;37.25;30.75;;;;;20.02;50.04;101361.47;5053659;28;46293;-83
2023/05/15 08:04:02;;;;;;;;;42.00;33.75;;;;;20.10;49.79;101374.28;5050329;28;45637;-82
2023/05/15 10:30:15;;;;;;;;;24.75;21.25;;;;;17.83;55.90;101363.38;5066785;27;45870;-69
2023/05/15 10:32:44;;;;;;;;;20.75;20.25;;;;;17.98;55.64;101358.69;5065637;28;45471;-70
2023/05/15 10:35:11;;;;;;;;;27.75;25.75;;;;;18.17;55.68;101359.03;5062449;28;45444;-71
2023/05/15 10:37:38;;;;;;;;;26.00;25.25;;;;;18.33;55.26;101347.09;5063800;28;45607;-71
2023/05/15 10:40:10;;;;;;;;;23.75;19.50;;;;;18.53;55.24;101347.38;5069638;27;45455;-70
2023/05/15 10:42:37;;;;;;;;;26.75;22.25;;;;;18.66;55.07;101345.44;5068619;28;45493;-73
2023/05/15 10:45:04;;;;;;;;;24.00;22.50;;;;;18.87;54.53;101350.06;5067560;28;45630;-72
2023/05/15 10:47:30;;;;;;;;;27.25;23.25;;;;;18.93;54.20;101337.97;5069473;27;45519;-72
2023/05/15 10:49:56;;;;;;;;;22.50;21.00;;;;;19.16;53.94;101349.59;5067700;28;46299;-72
2023/05/15 10:52:23;;;;;;;;;22.50;21.00;;;;;19.27;54.13;101343.34;5069049;27;45540;-73
2023/05/15 10:54:49;;;;;;;;;24.75;20.50;;;;;19.42;53.78;101351.13;5069194;28;45662;-72
2023/05/15 10:57:14;;;;;;;;;27.75;25.75;;;;;19.49;53.77;101336.16;5068717;28;45696;-73
2023/05/15 10:59:43;;;;;;;;;26.50;24.25;;;;;19.64;53.53;101347.50;5068263;28;46026;-72
2023/05/15 11:02:22;;;;;;;;;32.25;28.75;;;;;19.74;53.42;101347.59;5068173;27;45507;-72
2023/05/15 11:04:52;;;;;;;;;26.50;24.25;;;;;19.83;53.10;101344.13;5068886;27;45644;-72
2023/05/15 11:07:17;;;;;;;;;26.75;23.50;;;;;19.90;52.61;101335.53;5067871;28;45470;-73
2023/05/15 11:09:43;;;;;;;;;27.75;26.00;;;;;19.95;52.86;101334.16;5067695;27;45524;-69
2023/05/15 11:12:11;;;;;;;;;20.75;18.00;;;;;20.04;52.58;101331.69;5064177;28;45521;-69
2023/05/15 11:14:38;;;;;;;;;25.00;22.25;;;;;20.13;52.61;101341.69;5056133;28;45454;-71
2023/05/15 11:17:05;;;;;;;;;24.50;22.75;;;;;20.20;52.18;101348.28;5059668;28;45570;-71
2023/05/15 11:19:35;;;;;;;;;28.25;26.75;;;;;20.24;52.13;101344.31;5054420;28;45758;-73
2023/05/15 11:22:08;;;;;;;;;20.50;20.50;;;;;20.28;52.10;101348.44;5065864;28;45507;-74
2023/05/15 11:25:04;;;;;;;;;21.25;17.00;;;;;20.32;51.85;101343.66;5062576;28;45480;-74
2023/05/15 11:27:38;;;;;;;;;19.75;15.00;;;;;20.33;52.29;101339.97;5055510;28;45790;-74
2023/05/15 11:30:16;;;;;;;;;23.25;20.25;;;;;20.33;52.33;101342.69;5067039;27;45499;-74
2023/05/15 11:33:04;;;;;;;;;17.75;16.25;;;;;20.37;51.98;101340.56;5063161;27;45599;-74
2023/05/15 11:35:34;;;;;;;;;20.25;19.50;;;;;20.36;52.51;101345.09;5068319;27;45538;-73
2023/05/15 11:38:10;;;;;;;;;24.00;20.75;;;;;20.40;51.94;101343.84;5054758;28;45506;-73
2023/05/15 11:40:48;;;;;;;;;20.00;19.25;;;;;20.42;52.19;101341.00;5055227;28;47232;-74
2023/05/15 11:43:16;;;;;;;;;22.25;21.50;;;;;20.42;51.74;101341.00;5039536;28;45725;-74
2023/05/15 11:45:44;;;;;;;;;22.00;20.00;;;;;20.41;52.32;101345.53;5053632;28;45437;-73
2023/05/15 11:48:13;;;;;;;;;23.00;22.00;;;;;20.34;51.92;101325.50;5051218;28;45468;-73
2023/05/15 11:50:40;;;;;;;;;23.50;19.75;;;;;20.46;51.52;101341.59;5053719;28;46302;-74
2023/05/15 11:53:08;;;;;;;;;23.50;19.50;;;;;20.47;51.80;101336.06;5053948;28;45821;-74
2023/05/15 11:55:35;;;;;;;;;22.75;19.75;;;;;20.45;51.62;101327.28;5054209;28;45425;-74
2023/05/15 11:58:01;;;;;;;;;20.25;19.00;;;;;20.47;51.82;101327.97;5053852;28;45626;-73
2023/05/15 12:00:26;;;;;;;;;21.25;20.75;;;;;20.49;51.34;101331.41;5054102;28;45834;-74
2023/05/15 12:02:52;;;;;;;;;15.50;15.50;;;;;20.41;51.10;101306.97;5054452;28;45749;-73
2023/05/15 12:05:18;;;;;;;;;22.25;20.75;;;;;20.54;51.79;101325.63;5054756;28;45504;-73
2023/05/15 12:07:43;;;;;;;;;22.75;21.00;;;;;20.53;51.25;101321.22;5054565;28;45528;-73
2023/05/15 12:10:10;;;;;;;;;18.00;17.75;;;;;20.55;51.12;101327.31;5054045;28;46262;-73
2023/05/15 12:12:43;;;;;;;;;23.50;22.25;;;;;20.51;51.15;101315.09;5053828;28;45382;-73
2023/05/15 12:15:13;;;;;;;;;19.75;18.00;;;;;20.53;51.59;101323.91;5053944;28;45855;-73
2023/05/15 12:17:39;;;;;;;;;21.00;20.25;;;;;20.49;50.91;101323.34;5045708;28;45537;-74
2023/05/15 12:20:15;;;;;;;;;21.75;19.00;;;;;20.53;51.38;101330.13;5053273;28;46540;-73
2023/05/15 12:22:43;;;;;;;;;19.00;16.33;;;;;20.51;51.56;101326.72;5051929;28;45426;-73
2023/05/15 12:25:14;;;;;;;;;22.00;20.00;;;;;20.52;51.68;101333.00;5036227;28;45634;-72
2023/05/15 12:27:40;;;;;;;;;20.50;20.50;;;;;20.52;51.62;101333.00;5043561;28;45644;-73
2023/05/15 12:30:06;;;;;;;;;22.25;21.25;;;;;20.51;51.14;101332.13;5038826;28;46528;-72
2023/05/15 12:32:35;;;;;;;;;24.00;23.75;;;;;20.53;51.21;101330.13;5042902;28;46934;-73
2023/05/15 12:35:02;;;;;;;;;31.75;28.50;;;;;20.54;50.84;101328.31;5044368;28;45458;-73
2023/05/15 12:37:31;;;;;;;;;33.00;31.00;;;;;20.53;50.73;101338.22;5044544;28;45950;-73
2023/05/15 12:40:00;;;;;;;;;30.75;28.00;;;;;20.49;50.65;101328.72;5042228;28;46141;-73
2023/05/15 12:42:25;;;;;;;;;31.75;29.00;;;;;20.49;50.12;101333.25;5040465;28;45774;-73
2023/05/15 12:44:54;;;;;;;;;33.50;31.25;;;;;20.51;50.18;101328.56;5039105;28;46073;-72
2023/05/15 12:47:24;;;;;;;;;36.25;33.50;;;;;20.49;50.18;101317.06;5044756;28;46260;-73
2023/05/15 12:49:53;;;;;;;;;31.50;27.25;;;;;20.49;50.41;101323.34;5040845;28;46292;-73
2023/05/15 12:52:19;;;;;;;;;34.25;29.75;;;;;20.47;50.29;101319.91;5047254;28;45838;-73
2023/05/15 12:54:44;;;;;;;;;27.00;25.50;;;;;20.48;50.03;101326.16;5044720;28;45632;-73
2023/05/15 12:57:10;;;;;;;;;26.00;23.25;;;;;20.50;51.43;101335.81;5042357;28;45468;-74
2023/05/15 12:59:38;;;;;;;;;22.50;22.50;;;;;20.51;50.52;101337.53;5044832;28;46148;-73
2023/05/15 13:02:08;;;;;;;;;27.50;24.25;;;;;20.42;50.71;101314.06;5044785;28;45420;-71
2023/05/15 13:04:34;;;;;;;;;28.25;25.00;;;;;20.43;50.97;101323.00;5051467;28;45409;-72
2023/05/15 13:06:59;;;;;;;;;27.25;19.50;;;;;20.50;50.80;101335.81;5041992;28;45327;-72
2023/05/15 13:09:25;;;;;;;;;26.00;23.00;;;;;20.40;50.67;101316.03;5054051;28;46079;-73
2023/05/15 13:11:54;;;;;;;;;22.75;22.25;;;;;20.52;50.40;101336.53;5043207;28;46697;-72
2023/05/15 13:14:21;;;;;;;;;23.25;19.50;;;;;20.50;50.13;101329.56;5042847;28;45504;-72
2023/05/15 13:16:46;;;;;;;;;25.25;21.50;;;;;20.53;50.42;101334.69;5050606;28;45410;-72
2023/05/15 13:19:12;;;;;;;;;27.25;24.25;;;;;20.55;50.37;101338.09;5052768;28;45387;-72
2023/05/15 13:21:37;;;;;;;;;27.75;22.75;;;;;20.53;50.37;101332.00;5050395;28;45574;-73
2023/05/15 13:24:03;;;;;;;;;21.00;19.75;;;;;20.57;50.33;101327.19;5053836;28;45553;-74
2023/05/15 13:26:29;;;;;;;;;26.50;24.25;;;;;20.62;50.59;101346.50;5052572;28;45398;-74
2023/05/15 13:28:54;;;;;;;;;25.25;22.25;;;;;20.64;50.50;101336.47;5051293;28;47158;-74
2023/05/15 13:31:20;;;;;;;;;27.00;25.75;;;;;20.69;50.61;101344.13;5049670;28;45445;-73
2023/05/15 13:33:45;;;;;;;;;24.25;24.25;;;;;20.69;50.41;101341.44;5049188;28;45800;-73
2023/05/15 13:36:11;;;;;;;;;24.50;23.25;;;;;20.73;50.47;101341.03;5050960;28;45474;-74
2023/05/15 13:38:36;;;;;;;;;23.75;22.25;;;;;20.74;50.63;101341.88;5039739;28;45505;-73
2023/05/15 13:41:03;;;;;;;;;20.50;19.25;;;;;20.76;50.02;101340.75;5044872;28;47008;-73
2023/05/15 13:43:28;;;;;;;;;29.25;23.50;;;;;20.76;50.10;101337.22;5050438;28;45668;-74
2023/05/15 13:45:54;;;;;;;;;24.25;22.50;;;;;20.83;49.96;101348.28;5049933;28;45809;-73
2023/05/15 13:48:20;;;;;;;;;26.50;21.75;;;;;20.83;49.92;101330.28;5052726;28;46315;-73
2023/05/15 13:50:45;;;;;;;;;29.75;19.50;;;;;20.80;50.16;101327.84;5050758;28;45586;-74
2023/05/15 13:53:15;;;;;;;;;25.50;24.25;;;;;20.80;50.25;101317.06;5051865;28;45586;-73
2023/05/15 13:55:44;;;;;;;;;22.75;21.75;;;;;20.90;50.30;101327.94;5052115;28;45442;-73
2023/05/15 13:58:13;;;;;;;;;26.75;22.75;;;;;20.91;49.94;101325.09;5040067;28;47192;-71
2023/05/15 14:00:41;;;;;;;;;24.25;22.75;;;;;20.89;50.17;101318.13;5033567;28;45731;-72
2023/05/15 14:03:06;;;;;;;;;22.75;22.00;;;;;20.92;49.86;101334.88;5026827;28;45506;-73
2023/05/15 14:05:32;;;;;;;;;24.00;20.50;;;;;20.92;49.66;101337.59;5048886;28;45834;-73
2023/05/15 14:07:57;;;;;;;;;24.00;24.00;;;;;20.91;49.75;101335.88;5050878;28;45485;-72
2023/05/15 14:10:23;;;;;;;;;21.75;20.25;;;;;20.93;50.14;101331.19;5052297;28;45625;-72
2023/05/15 14:12:49;;;;;;;;;20.75;19.00;;;;;20.94;50.23;101337.47;5047495;28;45436;-72
2023/05/15 14:15:14;;;;;;;;;22.75;19.50;;;;;20.93;50.28;101325.78;5046080;28;45540;-71
2023/05/15 14:17:40;;;;;;;;;25.00;20.00;;;;;20.97;50.12;101330.94;5045507;28;46113;-72
2023/05/15 14:20:08;;;;;;;;;19.75;19.00;;;;;20.97;49.63;101322.84;5043716;28;45537;-71
2023/05/15 14:22:34;;;;;;;;;19.00;17.75;;;;;20.95;49.77;101314.88;5038358;28;45506;-72
2023/05/15 14:24:59;;;;;;;;;21.50;21.00;;;;;20.97;49.92;101325.53;5050437;28;45434;-71
2023/05/15 14:27:25;;;;;;;;;22.75;17.50;;;;;21.02;50.36;101332.25;5049484;28;45420;-71
2023/05/15 14:29:50;;;;;;;;;21.50;19.00;;;;;21.02;50.31;101332.25;5047065;28;45604;-72
2023/05/15 14:32:15;;;;;;;;;21.00;20.00;;;;;21.05;50.07;101328.41;5052189;28;45703;-70
2023/05/15 14:34:40;;;;;;;;;22.67;20.67;;;;;21.04;50.17;101324.84;5050489;28;47807;-72
2023/05/15 14:37:06;;;;;;;;;23.33;19.67;;;;;21.09;49.72;101331.69;5035194;28;53990;-71
2023/05/15 14:39:31;;;;;;;;;19.33;17.67;;;;;21.12;50.31;101332.25;5048851;28;45516;-72
2023/05/15 14:41:57;;;;;;;;;24.00;21.33;;;;;21.14;50.43;101327.56;5043993;28;45487;-72
2023/05/15 14:44:22;;;;;;;;;18.75;18.25;;;;;21.16;50.25;101322.03;5044237;28;46491;-71
2023/05/15 14:46:47;;;;;;;;;22.00;19.75;;;;;21.19;50.41;101325.31;5049677;28;60063;-71
2023/05/15 14:49:13;;;;;;;;;17.67;16.67;;;;;21.22;50.13;101332.28;5040524;28;45404;-71
2023/05/15 14:51:38;;;;;;;;;19.00;17.67;;;;;21.24;50.05;101332.13;5051439;28;45565;-71
2023/05/15 14:54:04;;;;;;;;;18.67;14.67;;;;;21.19;50.67;101328.03;5040079;28;45506;-71
2023/05/15 14:56:30;;;;;;;;;18.67;16.33;;;;;21.16;50.50;101324.72;5051828;28;45811;-71
2023/05/15 14:58:55;;;;;;;;;19.67;17.00;;;;;21.30;50.54;101342.38;5040727;28;45563;-71
2023/05/15 15:01:20;;;;;;;;;19.67;16.00;;;;;21.31;50.78;101338.69;5051725;28;49242;-71
2023/05/15 15:03:46;;;;;;;;;18.00;17.67;;;;;21.33;50.28;101339.38;5047800;28;45590;-71
2023/05/15 15:06:11;;;;;;;;;20.67;18.00;;;;;21.36;50.77;101344.53;5044693;28;45641;-71
2023/05/15 15:08:37;;;;;;;;;17.33;15.33;;;;;21.37;50.29;101346.22;5047745;28;45331;-73
2023/05/15 15:11:02;;;;;;;;;16.33;15.33;;;;;21.39;50.64;101352.34;5050671;28;45488;-71
2023/05/15 15:13:28;;;;;;;;;16.33;16.33;;;;;21.40;50.50;101340.56;5051006;28;45537;-73
2023/05/15 15:15:54;;;;;;;;;15.33;15.33;;;;;21.43;50.45;101340.28;5044696;28;45558;-73
2023/05/15 15:18:20;;;;;;;;;15.25;15.25;;;;;21.45;50.71;101346.38;5054249;28;45548;-72
2023/05/15 15:20:45;;;;;;;;;19.33;17.00;;;;;21.47;50.92;101354.34;5057495;28;45368;-71
2023/05/15 15:23:11;;;;;;;;;20.67;20.33;;;;;21.49;50.47;101354.22;5054477;28;45594;-74
2023/05/15 15:25:36;;;;;;;;;18.33;17.33;;;;;21.48;50.58;101357.88;5047182;28;46319;-73
2023/05/15 15:28:02;;;;;;;;;19.33;18.67;;;;;21.50;50.54;101364.03;5044698;28;45473;-73
2023/05/15 15:30:27;;;;;;;;;17.00;16.33;;;;;21.51;50.40;101361.19;5051185;28;45392;-74
2023/05/15 15:32:54;;;;;;;;;17.33;15.00;;;;;21.53;50.51;101371.81;5053884;28;45632;-74
2023/05/15 15:35:20;;;;;;;;;15.33;11.33;;;;;21.54;50.61;101368.16;5052556;28;46369;-74
2023/05/15 15:37:45;;;;;;;;;19.00;15.67;;;;;21.54;51.01;101366.28;5049300;28;45654;-73
2023/05/15 15:40:10;;;;;;;;;17.00;17.00;;;;;21.56;50.49;101368.84;5048490;28;45537;-73
2023/05/15 15:42:36;;;;;;;;;18.00;13.00;;;;;21.57;50.88;101363.31;5042812;28;45413;-73
2023/05/15 15:45:02;;;;;;;;;17.00;17.00;;;;;21.59;51.01;101364.00;5053762;28;45474;-73
2023/05/15 15:47:31;;;;;;;;;16.33;15.67;;;;;21.61;51.11;101361.19;5053820;28;45665;-74
2023/05/15 15:49:59;;;;;;;;;16.00;14.33;;;;;21.59;50.75;101364.00;5051731;28;45546;-73
2023/05/15 15:52:25;;;;;;;;;21.33;16.33;;;;;21.62;50.47;101372.84;5045576;28;45405;-73
2023/05/15 15:54:50;;;;;;;;;16.67;14.33;;;;;21.60;50.96;101362.19;5056990;28;46092;-70
2023/05/15 15:57:16;;;;;;;;;15.67;15.67;;;;;21.62;49.59;101364.75;5054195;28;45352;-71
2023/05/15 15:59:42;;;;;;;;;18.00;12.67;;;;;21.61;49.02;101369.28;5054701;28;45462;-71
2023/05/15 16:02:08;;;;;;;;;13.33;11.33;;;;;21.59;49.32;101371.28;5054627;28;45356;-71
2023/05/15 16:04:34;;;;;;;;;14.67;13.33;;;;;21.53;49.47;101367.28;5054028;28;45516;-71
2023/05/15 16:07:00;;;;;;;;;12.00;12.00;;;;;21.54;49.08;101377.09;5059078;28;45956;-71
2023/05/15 16:09:25;;;;;;;;;10.67;10.67;;;;;21.49;50.09;101387.47;5050039;28;45525;-71
2023/05/15 16:11:50;;;;;;;;;7.67;7.67;;;;;21.40;50.13;101377.50;5054217;28;47744;-71
2023/05/15 16:14:20;;;;;;;;;10.00;10.00;;;;;21.37;49.73;101384.03;5048756;28;46002;-72
2023/05/15 16:16:45;;;;;;;;;13.67;12.00;;;;;21.31;50.08;101376.50;5051697;28;45633;-71
2023/05/15 16:19:12;;;;;;;;;14.00;12.00;;;;;21.31;49.99;101382.75;5053035;28;45946;-71
2023/05/15 16:21:37;;;;;;;;;12.67;11.67;;;;;21.30;49.78;101382.88;5050426;28;45710;-72
2023/05/15 16:24:02;;;;;;;;;16.33;14.00;;;;;21.30;49.87;101381.03;5050355;28;48099;-71
2023/05/15 16:26:28;;;;;;;;;18.33;13.67;;;;;21.30;49.94;101378.31;5046402;28;45495;-71
2023/05/15 16:28:53;;;;;;;;;14.33;14.33;;;;;21.27;49.89;101384.03;5049804;28;45525;-71
2023/05/15 16:31:19;;;;;;;;;13.33;12.00;;;;;21.28;49.94;101380.31;5043687;28;46465;-71
2023/05/15 16:33:45;;;;;;;;;14.33;10.67;;;;;21.28;49.30;101393.81;5048289;28;45987;-72
2023/05/15 16:36:11;;;;;;;;;9.00;9.00;;;;;21.28;49.75;101387.56;5047954;28;45661;-72
2023/05/15 16:38:36;;;;;;;;;13.00;11.33;;;;;21.26;49.58;101386.84;5043014;28;45383;-72
2023/05/15 16:41:02;;;;;;;;;15.00;11.33;;;;;21.21;49.79;101389.94;5045459;28;45790;-72
2023/05/15 16:43:27;;;;;;;;;12.33;12.33;;;;;21.23;49.39;101401.47;5050616;28;45975;-73
2023/05/15 16:45:53;;;;;;;;;10.00;8.67;;;;;21.19;49.32;101395.50;5053616;28;45558;-73
2023/05/15 16:48:18;;;;;;;;;12.33;10.00;;;;;21.22;49.46;101405.19;5047818;28;54937;-74
2023/05/15 16:50:43;;;;;;;;;8.67;8.00;;;;;21.23;49.91;101406.88;5053818;28;45390;-72
2023/05/15 16:53:08;;;;;;;;;9.00;8.33;;;;;21.17;49.50;101394.78;5039385;28;46342;-74
2023/05/15 16:55:34;;;;;;;;;8.33;7.00;;;;;21.22;50.02;101409.72;5037280;28;45563;-73
2023/05/15 16:57:59;;;;;;;;;10.33;8.00;;;;;21.22;49.33;101407.88;5038259;28;45933;-73
2023/05/15 17:00:25;;;;;;;;;11.33;8.33;;;;;21.19;49.73;101400.91;5036595;28;45459;-72
2023/05/15 17:02:50;;;;;;;;;9.33;8.00;;;;;21.23;49.99;101411.41;5048449;28;45942;-74
2023/05/15 17:05:16;;;;;;;;;8.00;8.00;;;;;21.21;49.33;101405.31;5044015;28;45439;-73
2023/05/15 17:07:43;;;;;;;;;10.67;8.33;;;;;21.21;49.38;101408.84;5040460;28;45690;-74
2023/05/15 17:10:10;;;;;;;;;13.67;9.00;;;;;21.23;49.76;101420.38;5036423;28;45545;-72
2023/05/15 17:12:36;;;;;;;;;7.33;5.67;;;;;21.27;49.86;101423.66;5047589;28;46226;-73
2023/05/15 17:15:02;;;;;;;;;11.33;10.00;;;;;21.26;49.71;101428.19;5045262;28;45412;-72
2023/05/15 17:17:28;;;;;;;;;9.00;8.00;;;;;21.28;49.72;101437.03;5045375;28;45424;-73
2023/05/15 17:19:54;;;;;;;;;11.00;9.33;;;;;21.28;49.78;101436.16;5048358;28;45517;-72
2023/05/15 17:22:20;;;;;;;;;6.00;5.67;;;;;21.29;49.74;101441.41;5050247;28;46370;-72
2023/05/15 17:24:47;;;;;;;;;13.00;12.00;;;;;21.30;49.39;101451.22;5031782;28;45463;-72
2023/05/15 17:27:13;;;;;;;;;14.67;9.67;;;;;21.27;49.75;101454.22;5037840;28;45741;-74
2023/05/15 17:29:38;;;;;;;;;10.00;10.00;;;;;21.24;49.32;101456.31;5041995;28;45511;-74
2023/05/15 17:32:04;;;;;;;;;11.33;8.00;;;;;21.24;49.30;101462.56;5040569;28;45454;-75
2023/05/15 17:34:29;;;;;;;;;9.00;7.00;;;;;21.26;49.49;101465.16;5040581;28;45423;-75
2023/05/15 17:36:55;;;;;;;;;9.00;9.00;;;;;21.23;49.63;101466.28;5041328;28;45396;-75
2023/05/15 17:39:20;;;;;;;;;6.67;6.67;;;;;21.25;49.44;101476.94;5038925;28;45521;-74
2023/05/15 17:41:46;;;;;;;;;13.00;9.00;;;;;21.25;49.28;101474.25;5040115;28;46364;-72
2023/05/15 17:44:12;;;;;;;;;6.67;6.33;;;;;21.22;49.38;101479.91;5042074;28;45591;-72
2023/05/15 17:46:37;;;;;;;;;8.67;8.67;;;;;21.24;49.55;101477.91;5038586;28;45744;-73
2023/05/15 17:49:02;;;;;;;;;11.00;9.33;;;;;21.25;49.67;101485.03;5037633;28;45417;-72
2023/05/15 17:51:27;;;;;;;;;12.67;8.00;;;;;21.26;49.74;101503.78;5038807;28;47375;-72
2023/05/15 17:53:53;;;;;;;;;7.33;6.67;;;;;21.25;49.53;101502.06;5039893;28;46428;-72
2023/05/15 17:56:18;;;;;;;;;7.67;7.67;;;;;21.22;49.69;101510.47;5040998;28;49770;-72
2023/05/15 17:58:43;;;;;;;;;7.67;7.67;;;;;21.26;49.51;101511.03;5042497;28;45483;-72
2023/05/15 18:01:09;;;;;;;;;6.33;6.33;;;;;21.27;49.73;101529.81;5042939;28;62298;-72
2023/05/15 18:03:34;;;;;;;;;6.00;6.00;;;;;21.27;49.36;101531.66;5044158;28;45639;-72
2023/05/15 18:05:59;;;;;;;;;12.67;9.00;;;;;21.25;49.04;101533.63;5037145;28;49294;-72
2023/05/15 18:08:25;;;;;;;;;8.33;7.67;;;;;21.17;48.05;101531.63;5038019;28;45519;-72
2023/05/15 18:10:50;;;;;;;;;12.67;9.33;;;;;21.18;48.79;101539.56;5035654;28;46495;-72
2023/05/15 18:13:16;;;;;;;;;7.33;7.33;;;;;21.17;49.03;101542.41;5036394;28;45396;-73
2023/05/15 18:15:41;;;;;;;;;6.00;6.00;;;;;21.15;49.01;101536.28;5040719;28;45620;-72
2023/05/15 18:18:06;;;;;;;;;6.33;6.33;;;;;21.17;48.76;101531.63;5038286;28;46149;-73
2023/05/15 18:20:32;;;;;;;;;9.00;8.00;;;;;21.14;49.24;101535.41;5038400;28;45654;-71
2023/05/15 18:22:57;;;;;;;;;10.33;9.67;;;;;21.18;49.21;101546.81;5040993;28;45479;-72
2023/05/15 18:25:23;;;;;;;;;8.33;8.00;;;;;21.15;49.53;101545.22;5040552;28;45467;-72
2023/05/15 18:27:49;;;;;;;;;8.00;6.00;;;;;21.22;49.49;101556.38;5036402;28;50082;-73
2023/05/15 18:30:14;;;;;;;;;8.00;8.00;;;;;21.23;49.06;101558.06;5040728;28;45690;-71
2023/05/15 18:32:40;;;;;;;;;13.33;9.33;;;;;21.25;49.51;101566.03;5040029;28;53988;-71
2023/05/15 18:35:06;;;;;;;;;6.00;5.33;;;;;21.25;48.90;101556.06;5040012;28;45688;-71
2023/05/15 18:37:31;;;;;;;;;6.33;6.00;;;;;21.26;49.51;101562.34;5034439;28;46764;-71
2023/05/15 18:39:57;;;;;;;;;7.67;7.67;;;;;21.25;48.93;101569.56;5046929;28;45710;-71
2023/05/15 18:42:26;;;;;;;;;8.67;7.67;;;;;21.23;49.14;101568.88;5044145;28;45466;-71
2023/05/15 18:44:52;;;;;;;;;10.33;7.00;;;;;21.23;49.01;101560.75;5047035;28;45470;-71
2023/05/15 18:47:17;;;;;;;;;9.67;7.67;;;;;21.26;48.90;101570.44;5045913;28;45877;-71
2023/05/15 18:49:43;;;;;;;;;7.33;7.33;;;;;21.25;48.88;101580.38;5046268;28;46077;-71
2023/05/15 18:52:08;;;;;;;;;7.67;6.67;;;;;21.23;49.20;101576.97;5051579;28;45407;-72
2023/05/15 18:54:34;;;;;;;;;6.33;6.00;;;;;21.18;49.10;101580.03;5048494;28;45402;-71
